createdAt,value
2018-08-25T00:00:22.398Z,4.37
2018-08-25T00:02:51.217Z,4.13
2018-08-25T00:05:19.965Z,4.60
2018-08-25T00:07:48.763Z,4.70
2018-08-25T00:10:17.608Z,5.03
2018-08-25T00:12:46.379Z,4.73
2018-08-25T00:15:15.190Z,4.57
2018-08-25T00:17:43.954Z,4.87
2018-08-25T00:20:12.738Z,4.90
2018-08-25T00:22:41.498Z,5.37
2018-08-25T00:25:10.293Z,4.73
2018-08-25T00:27:39.079Z,4.60
2018-08-25T00:30:13.123Z,5.43
2018-08-25T00:32:41.959Z,4.87
2018-08-25T00:35:10.760Z,5.80
2018-08-25T00:37:39.551Z,5.40
2018-08-25T00:40:08.384Z,5.60
2018-08-25T00:42:37.608Z,5.43
2018-08-25T00:45:06.467Z,5.30
2018-08-25T00:47:35.295Z,5.27
2018-08-25T00:50:04.278Z,5.13
2018-08-25T00:52:33.048Z,5.47
2018-08-25T00:55:01.820Z,5.27
2018-08-25T00:57:30.627Z,5.00
2018-08-25T00:59:59.579Z,5.00
2018-08-25T01:02:28.388Z,4.70
2018-08-25T01:04:57.278Z,5.73
2018-08-25T01:07:26.125Z,4.80
2018-08-25T01:09:54.940Z,5.37
2018-08-25T01:12:23.714Z,4.97
2018-08-25T01:14:52.535Z,4.83
2018-08-25T01:17:21.346Z,5.23
2018-08-25T01:19:50.125Z,5.20
2018-08-25T01:22:18.902Z,5.27
2018-08-25T01:24:47.820Z,5.43
2018-08-25T01:27:16.606Z,4.80
2018-08-25T01:29:45.423Z,4.40
2018-08-25T01:32:14.228Z,5.57
2018-08-25T01:34:43.038Z,5.50
2018-08-25T01:37:11.786Z,5.63
2018-08-25T01:39:40.523Z,6.47
2018-08-25T01:42:09.290Z,5.20
2018-08-25T01:44:38.035Z,5.07
2018-08-25T01:47:07.228Z,5.80
2018-08-25T01:49:35.990Z,5.47
2018-08-25T01:52:04.752Z,5.73
2018-08-25T01:54:33.548Z,4.80
2018-08-25T01:57:02.380Z,6.10
2018-08-25T01:59:31.207Z,5.63
2018-08-25T02:01:59.943Z,5.80
2018-08-25T02:04:32.026Z,5.80
2018-08-25T02:07:00.842Z,5.83
2018-08-25T02:09:29.625Z,6.10
2018-08-25T02:11:58.495Z,5.93
2018-08-25T02:14:27.737Z,6.40
2018-08-25T02:16:56.621Z,5.73
2018-08-25T02:19:25.385Z,5.50
2018-08-25T02:21:54.138Z,5.80
2018-08-25T02:24:22.921Z,5.90
2018-08-25T02:26:51.704Z,5.80
2018-08-25T02:29:20.487Z,6.50
2018-08-25T02:31:49.280Z,5.77
2018-08-25T02:34:18.258Z,6.67
2018-08-25T02:36:47.033Z,5.27
2018-08-25T02:39:15.854Z,5.67
2018-08-25T02:41:44.869Z,6.57
2018-08-25T02:44:13.669Z,6.50
2018-08-25T02:46:42.460Z,6.47
2018-08-25T02:49:11.250Z,5.97
2018-08-25T02:51:40.073Z,6.97
2018-08-25T02:54:08.876Z,6.17
2018-08-25T02:56:37.651Z,5.47
2018-08-25T02:59:06.468Z,5.63
2018-08-25T03:01:35.312Z,6.47
2018-08-25T03:04:04.081Z,6.33
2018-08-25T03:06:32.848Z,7.50
2018-08-25T03:09:01.664Z,5.93
2018-08-25T03:11:30.440Z,6.60
2018-08-25T03:13:59.199Z,6.57
2018-08-25T03:16:28.027Z,6.60
2018-08-25T03:18:56.820Z,6.43
2018-08-25T03:21:25.598Z,6.57
2018-08-25T03:23:54.678Z,5.90
2018-08-25T03:26:23.418Z,6.87
2018-08-25T03:28:52.186Z,6.00
2018-08-25T03:31:20.966Z,6.77
2018-08-25T03:33:49.759Z,7.27
2018-08-25T03:36:18.489Z,7.40
2018-08-25T03:38:47.252Z,7.43
2018-08-25T03:41:16.052Z,6.60
2018-08-25T03:43:44.832Z,7.07
2018-08-25T03:46:13.656Z,6.53
2018-08-25T03:48:42.482Z,6.67
2018-08-25T03:51:11.255Z,7.03
2018-08-25T03:53:40.009Z,6.43
2018-08-25T03:56:08.944Z,7.30
2018-08-25T03:58:37.773Z,6.80
2018-08-25T04:01:06.587Z,7.27
2018-08-25T04:03:35.378Z,6.90
2018-08-25T04:06:04.176Z,7.43
2018-08-25T04:08:33.008Z,6.67
2018-08-25T04:11:01.813Z,6.17
2018-08-25T04:13:30.599Z,7.60
2018-08-25T04:15:59.579Z,6.80
2018-08-25T04:18:28.340Z,6.27
2018-08-25T04:20:57.131Z,6.93
2018-08-25T04:23:25.922Z,7.33
2018-08-25T04:25:54.673Z,5.93
2018-08-25T04:28:23.624Z,6.70
2018-08-25T04:30:52.542Z,6.73
2018-08-25T04:33:21.528Z,6.67
2018-08-25T04:35:50.490Z,7.00
2018-08-25T04:38:19.356Z,6.83
2018-08-25T04:40:48.184Z,6.47
2018-08-25T04:43:16.981Z,7.00
2018-08-25T04:45:45.775Z,6.93
2018-08-25T04:48:14.583Z,7.13
2018-08-25T04:50:43.395Z,7.20
2018-08-25T04:53:12.187Z,6.93
2018-08-25T04:55:40.998Z,7.07
2018-08-25T04:58:09.786Z,7.23
2018-08-25T05:00:38.574Z,7.33
2018-08-25T05:03:07.342Z,7.33
2018-08-25T05:05:36.126Z,7.63
2018-08-25T05:08:05.434Z,8.10
2018-08-25T05:10:34.222Z,7.53
2018-08-25T05:13:03.142Z,8.27
2018-08-25T05:15:31.914Z,7.33
2018-08-25T05:18:00.746Z,8.93
2018-08-25T05:20:29.559Z,12.70
2018-08-25T05:22:58.572Z,32.70
2018-08-25T05:25:27.356Z,11.43
2018-08-25T05:27:56.148Z,10.03
2018-08-25T05:30:25.951Z,20.33
2018-08-25T05:32:54.846Z,11.93
2018-08-25T05:35:23.694Z,27.90
2018-08-25T05:37:52.518Z,8.83
2018-08-25T05:40:21.276Z,11.20
2018-08-25T05:42:50.113Z,10.87
2018-08-25T05:45:18.859Z,9.10
2018-08-25T05:47:47.652Z,9.40
2018-08-25T05:50:16.955Z,10.87
2018-08-25T05:52:45.784Z,11.23
2018-08-25T05:55:14.601Z,12.10
2018-08-25T05:57:43.454Z,10.77
2018-08-25T06:00:13.188Z,10.73
2018-08-25T06:02:42.000Z,9.67
2018-08-25T06:05:12.088Z,10.77
2018-08-25T06:07:40.940Z,9.57
2018-08-25T06:10:09.799Z,9.57
2018-08-25T06:12:38.600Z,15.73
2018-08-25T06:15:07.409Z,9.33
2018-08-25T06:17:36.338Z,14.00
2018-08-25T06:20:05.488Z,18.47
2018-08-25T06:22:34.294Z,13.20
2018-08-25T06:25:03.115Z,10.73
2018-08-25T06:27:31.936Z,13.00
2018-08-25T06:30:00.776Z,11.83
2018-08-25T06:32:29.768Z,9.67
2018-08-25T06:34:58.551Z,10.50
2018-08-25T06:37:27.345Z,9.67
2018-08-25T06:39:56.142Z,11.30
2018-08-25T06:42:24.996Z,12.20
2018-08-25T06:44:53.916Z,11.13
2018-08-25T06:47:22.757Z,10.20
2018-08-25T06:49:51.551Z,11.00
2018-08-25T06:52:20.360Z,9.70
2018-08-25T06:54:49.143Z,10.07
2018-08-25T06:57:18.027Z,10.47
2018-08-25T06:59:47.219Z,10.50
2018-08-25T07:02:16.034Z,11.80
2018-08-25T07:04:44.876Z,11.73
2018-08-25T07:07:13.663Z,10.77
2018-08-25T07:09:42.442Z,10.83
2018-08-25T07:12:11.243Z,11.83
2018-08-25T07:14:40.031Z,11.73
2018-08-25T07:17:09.225Z,11.43
2018-08-25T07:19:38.008Z,10.67
2018-08-25T07:22:06.843Z,10.83
2018-08-25T07:24:35.680Z,11.77
2018-08-25T07:27:04.585Z,10.37
2018-08-25T07:29:33.344Z,10.63
2018-08-25T07:32:02.155Z,12.37
2018-08-25T07:34:31.141Z,10.43
2018-08-25T07:36:59.982Z,9.83
2018-08-25T07:39:28.819Z,11.23
2018-08-25T07:41:57.607Z,10.53
2018-08-25T07:44:26.444Z,10.53
2018-08-25T07:46:55.320Z,9.50
2018-08-25T07:49:24.139Z,9.97
2018-08-25T07:51:53.091Z,10.27
2018-08-25T07:54:21.884Z,9.80
2018-08-25T07:56:50.820Z,12.27
2018-08-25T07:59:19.726Z,10.53
2018-08-25T08:01:48.726Z,10.10
2018-08-25T08:04:17.536Z,10.80
2018-08-25T08:06:46.330Z,9.97
2018-08-25T08:09:15.229Z,10.07
2018-08-25T08:11:44.052Z,10.20
2018-08-25T08:14:13.042Z,10.47
2018-08-25T08:16:41.842Z,10.67
2018-08-25T08:19:10.603Z,10.17
2018-08-25T08:21:39.408Z,9.57
2018-08-25T08:24:08.207Z,10.63
2018-08-25T08:26:36.990Z,11.17
2018-08-25T08:29:05.786Z,9.43
2018-08-25T08:31:34.579Z,10.10
2018-08-25T08:34:03.400Z,10.37
2018-08-25T08:36:32.200Z,9.43
2018-08-25T08:39:01.073Z,10.13
2018-08-25T08:41:29.918Z,9.13
2018-08-25T08:43:58.679Z,8.83
2018-08-25T08:46:32.557Z,9.43
2018-08-25T08:49:01.371Z,8.63
2018-08-25T08:51:30.111Z,9.80
2018-08-25T08:53:58.920Z,9.47
2018-08-25T08:56:27.754Z,8.00
2018-08-25T08:58:56.536Z,10.33
2018-08-25T09:01:25.363Z,9.53
2018-08-25T09:03:54.176Z,10.00
2018-08-25T09:06:23.094Z,9.97
2018-08-25T09:08:52.203Z,9.03
2018-08-25T09:11:21.652Z,9.40
2018-08-25T09:13:51.137Z,9.07
2018-08-25T09:16:20.452Z,9.03
2018-08-25T09:18:49.420Z,8.57
2018-08-25T09:21:18.627Z,8.70
2018-08-25T09:23:47.538Z,7.83
2018-08-25T09:26:16.310Z,8.40
2018-08-25T09:28:45.131Z,9.03
2018-08-25T09:31:14.301Z,9.60
2018-08-25T09:33:43.130Z,10.53
2018-08-25T09:36:11.936Z,8.47
2018-08-25T09:38:40.957Z,8.20
2018-08-25T09:41:09.804Z,9.83
2018-08-25T09:43:38.848Z,7.90
2018-08-25T09:46:07.665Z,8.50
2018-08-25T09:48:36.465Z,8.53
2018-08-25T09:51:05.664Z,9.50
2018-08-25T09:53:34.922Z,10.00
2018-08-25T09:56:03.930Z,8.40
2018-08-25T09:58:32.718Z,10.60
2018-08-25T10:01:06.121Z,10.37
2018-08-25T10:03:35.830Z,8.63
2018-08-25T10:06:04.730Z,9.53
2018-08-25T10:08:33.543Z,9.17
2018-08-25T10:11:02.477Z,8.20
2018-08-25T10:13:31.873Z,8.50
2018-08-25T10:16:00.679Z,9.43
2018-08-25T10:18:29.527Z,9.13
2018-08-25T10:20:58.322Z,8.80
2018-08-25T10:23:27.184Z,9.93
2018-08-25T10:25:56.175Z,9.87
2018-08-25T10:28:25.069Z,9.30
2018-08-25T10:30:54.921Z,8.87
2018-08-25T10:33:23.748Z,9.57
2018-08-25T10:35:52.566Z,9.47
2018-08-25T10:38:21.532Z,9.80
2018-08-25T10:40:50.325Z,10.30
2018-08-25T10:43:19.183Z,10.13
2018-08-25T10:45:48.043Z,10.80
2018-08-25T10:48:16.930Z,9.93
2018-08-25T10:50:45.751Z,10.30
2018-08-25T10:53:14.587Z,10.17
2018-08-25T10:55:43.403Z,9.40
2018-08-25T10:58:12.227Z,9.77
2018-08-25T11:00:41.288Z,10.23
2018-08-25T11:03:10.136Z,8.90
2018-08-25T11:05:39.007Z,7.83
2018-08-25T11:08:08.185Z,9.23
2018-08-25T11:10:36.984Z,10.27
2018-08-25T11:13:05.829Z,10.27
2018-08-25T11:15:34.699Z,10.00
2018-08-25T11:18:03.528Z,9.30
2018-08-25T11:20:32.395Z,8.70
2018-08-25T11:23:01.228Z,7.80
2018-08-25T11:25:30.142Z,9.30
2018-08-25T11:27:58.954Z,8.50
2018-08-25T11:30:27.903Z,7.23
2018-08-25T11:32:56.747Z,7.67
2018-08-25T11:35:25.554Z,7.17
2018-08-25T11:37:54.479Z,7.53
2018-08-25T11:40:23.387Z,7.60
2018-08-25T11:42:52.208Z,8.17
2018-08-25T11:45:21.101Z,8.60
2018-08-25T11:47:49.917Z,7.80
2018-08-25T11:50:18.743Z,8.70
2018-08-25T11:52:47.519Z,8.17
2018-08-25T11:55:16.327Z,8.10
2018-08-25T11:57:45.163Z,9.23
2018-08-25T12:00:14.029Z,7.83
2018-08-25T12:02:42.893Z,7.83
2018-08-25T12:05:11.700Z,8.90
2018-08-25T12:07:40.567Z,9.33
2018-08-25T12:10:09.506Z,10.60
2018-08-25T12:12:38.311Z,10.30
2018-08-25T12:15:08.319Z,10.10
2018-08-25T12:17:37.622Z,10.13
2018-08-25T12:20:06.665Z,9.93
2018-08-25T12:22:35.475Z,9.30
2018-08-25T12:25:04.334Z,10.67
2018-08-25T12:27:33.214Z,10.70
2018-08-25T12:30:02.075Z,10.00
2018-08-25T12:32:31.139Z,9.80
2018-08-25T12:34:59.987Z,9.77
2018-08-25T12:37:28.801Z,7.90
2018-08-25T12:39:57.650Z,8.03
2018-08-25T12:42:26.900Z,7.60
2018-08-25T12:44:55.704Z,7.53
2018-08-25T12:47:25.157Z,6.63
2018-08-25T12:49:56.014Z,6.93
2018-08-25T12:52:24.869Z,6.37
2018-08-25T12:54:53.670Z,7.43
2018-08-25T12:57:23.129Z,6.73
2018-08-25T12:59:51.980Z,6.37
2018-08-25T13:02:20.819Z,7.10
2018-08-25T13:04:49.680Z,7.50
2018-08-25T13:07:18.526Z,7.10
2018-08-25T13:09:47.506Z,6.60
2018-08-25T13:12:16.343Z,6.80
2018-08-25T13:14:45.251Z,6.97
2018-08-25T13:17:14.342Z,6.90
2018-08-25T13:19:43.166Z,6.67
2018-08-25T13:22:12.172Z,6.97
2018-08-25T13:24:41.030Z,5.80
2018-08-25T13:27:09.963Z,6.53
2018-08-25T13:29:38.763Z,5.87
2018-08-25T13:32:07.590Z,6.60
2018-08-25T13:34:36.490Z,6.40
2018-08-25T13:37:05.272Z,6.70
2018-08-25T13:39:34.292Z,5.83
2018-08-25T13:42:03.127Z,6.00
2018-08-25T13:44:31.928Z,6.10
2018-08-25T13:47:01.012Z,6.97
2018-08-25T13:49:29.946Z,7.10
2018-08-25T13:51:58.807Z,6.60
2018-08-25T13:54:27.713Z,6.67
2018-08-25T13:56:56.539Z,5.73
2018-08-25T13:59:25.381Z,6.97
2018-08-25T14:01:54.205Z,6.70
2018-08-25T14:04:23.075Z,6.20
2018-08-25T14:06:51.896Z,6.67
2018-08-25T14:09:20.696Z,6.77
2018-08-25T14:11:49.452Z,7.93
2018-08-25T14:14:18.285Z,6.63
2018-08-25T14:16:47.367Z,6.87
2018-08-25T14:19:16.215Z,6.67
2018-08-25T14:21:45.019Z,8.87
2018-08-25T14:24:14.283Z,7.17
2018-08-25T14:26:43.174Z,6.80
2018-08-25T14:29:12.131Z,7.00
2018-08-25T14:31:41.049Z,7.70
2018-08-25T14:34:09.883Z,7.00
2018-08-25T14:36:39.729Z,7.13
2018-08-25T14:39:10.549Z,7.00
2018-08-25T14:41:39.418Z,6.50
2018-08-25T14:44:08.358Z,7.33
2018-08-25T14:46:38.372Z,7.83
2018-08-25T14:49:07.577Z,7.60
2018-08-25T14:51:36.418Z,7.30
2018-08-25T14:54:05.216Z,7.87
2018-08-25T14:56:34.047Z,7.50
2018-08-25T14:59:02.870Z,7.83
2018-08-25T15:01:32.166Z,7.47
2018-08-25T15:04:01.108Z,8.07
2018-08-25T15:06:29.944Z,8.00
2018-08-25T15:08:58.893Z,8.10
2018-08-25T15:11:27.681Z,8.20
2018-08-25T15:13:56.499Z,7.83
2018-08-25T15:16:25.340Z,8.80
2018-08-25T15:18:54.160Z,9.53
2018-08-25T15:21:23.264Z,8.37
2018-08-25T15:23:52.075Z,8.77
2018-08-25T15:26:21.011Z,10.17
2018-08-25T15:28:49.819Z,7.60
2018-08-25T15:34:00.358Z,7.13
2018-08-25T15:36:29.162Z,7.27
2018-08-25T15:38:57.986Z,8.60
2018-08-25T15:41:26.906Z,10.73
2018-08-25T15:43:55.699Z,11.90
2018-08-25T15:46:24.620Z,10.80
2018-08-25T15:48:53.888Z,10.50
2018-08-25T15:51:22.667Z,10.07
2018-08-25T15:53:51.507Z,10.23
2018-08-25T15:56:20.325Z,8.13
2018-08-25T15:58:49.124Z,8.17
2018-08-25T16:01:18.006Z,7.63
2018-08-25T16:03:46.876Z,7.80
2018-08-25T16:06:15.840Z,8.47
2018-08-25T16:08:44.794Z,7.87
2018-08-25T16:11:13.674Z,8.07
2018-08-25T16:13:43.499Z,8.23
2018-08-25T16:16:12.686Z,8.70
2018-08-25T16:18:41.511Z,7.37
2018-08-25T16:21:10.394Z,7.57
2018-08-25T16:23:39.195Z,7.93
2018-08-25T16:26:08.003Z,8.10
2018-08-25T16:28:36.874Z,7.57
2018-08-25T16:31:05.670Z,8.07
2018-08-25T16:33:34.578Z,8.00
2018-08-25T16:36:03.590Z,8.13
2018-08-25T16:38:32.403Z,7.97
2018-08-25T16:41:01.423Z,7.33
2018-08-25T16:43:30.326Z,8.27
2018-08-25T16:45:59.149Z,8.37
2018-08-25T16:48:28.002Z,8.20
2018-08-25T16:50:56.814Z,8.07
2018-08-25T16:53:25.614Z,9.03
2018-08-25T16:55:54.571Z,7.63
2018-08-25T16:58:23.567Z,7.97
2018-08-25T17:00:52.495Z,8.70
2018-08-25T17:03:21.338Z,9.90
2018-08-25T17:05:50.130Z,9.57
2018-08-25T17:08:18.976Z,8.60
2018-08-25T17:10:49.436Z,9.17
2018-08-25T17:13:18.278Z,9.37
2018-08-25T17:15:47.144Z,8.97
2018-08-25T17:18:15.985Z,8.57
2018-08-25T17:20:44.821Z,8.43
2018-08-25T17:23:13.999Z,8.73
2018-08-25T17:25:42.807Z,7.90
2018-08-25T17:28:11.613Z,9.00
2018-08-25T17:30:41.084Z,8.87
2018-08-25T17:33:10.209Z,8.60
2018-08-25T17:35:39.271Z,8.30
2018-08-25T17:38:08.199Z,8.23
2018-08-25T17:40:37.019Z,8.70
2018-08-25T17:43:06.230Z,8.13
2018-08-25T17:45:35.017Z,7.33
2018-08-25T17:48:03.830Z,7.33
2018-08-25T17:50:32.685Z,7.80
2018-08-25T17:53:01.473Z,6.63
2018-08-25T17:55:30.298Z,7.20
2018-08-25T17:57:59.110Z,7.30
2018-08-25T18:00:27.966Z,7.63
2018-08-25T18:02:56.791Z,7.13
2018-08-25T18:05:25.657Z,8.10
2018-08-25T18:07:54.544Z,7.73
2018-08-25T18:10:23.354Z,8.27
2018-08-25T18:12:52.214Z,8.27
2018-08-25T18:15:21.034Z,8.47
2018-08-25T18:17:49.862Z,8.63
2018-08-25T18:20:18.669Z,9.07
2018-08-25T18:22:49.145Z,8.07
2018-08-25T18:25:17.992Z,9.17
2018-08-25T18:27:46.797Z,9.33
2018-08-25T18:30:15.742Z,10.20
2018-08-25T18:32:44.681Z,9.83
2018-08-25T18:35:13.595Z,9.63
2018-08-25T18:37:42.393Z,10.60
2018-08-25T18:40:11.171Z,10.27
2018-08-25T18:42:40.041Z,10.07
2018-08-25T18:45:08.853Z,9.10
2018-08-25T18:47:37.629Z,9.27
2018-08-25T18:50:07.247Z,9.63
2018-08-25T18:52:36.038Z,9.67
2018-08-25T18:55:04.949Z,9.83
2018-08-25T18:57:33.944Z,9.33
2018-08-25T19:00:02.778Z,10.17
2018-08-25T19:02:31.918Z,10.60
2018-08-25T19:05:00.755Z,9.87
2018-08-25T19:07:29.601Z,9.60
2018-08-25T19:09:58.479Z,9.73
2018-08-25T19:12:27.312Z,9.97
2018-08-25T19:14:56.142Z,10.27
2018-08-25T19:17:25.101Z,9.57
2018-08-25T19:19:53.949Z,9.37
2018-08-25T19:22:22.722Z,9.47
2018-08-25T19:24:51.610Z,9.37
2018-08-25T19:27:20.491Z,10.73
2018-08-25T19:29:49.308Z,9.80
2018-08-25T19:32:18.156Z,9.07
2018-08-25T19:34:47.037Z,10.23
2018-08-25T19:37:15.875Z,10.07
2018-08-25T19:39:44.670Z,10.60
2018-08-25T19:42:13.504Z,10.23
2018-08-25T19:44:42.366Z,9.73
2018-08-25T19:47:11.176Z,10.33
2018-08-25T19:49:40.146Z,11.27
2018-08-25T19:52:09.311Z,10.30
2018-08-25T19:54:38.076Z,10.43
2018-08-25T19:57:06.991Z,10.53
2018-08-25T19:59:35.809Z,11.67
2018-08-25T20:02:04.637Z,10.03
2018-08-25T20:04:33.560Z,12.03
2018-08-25T20:07:02.453Z,12.17
2018-08-25T20:09:31.335Z,12.03
2018-08-25T20:12:00.334Z,11.40
2018-08-25T20:14:29.134Z,11.47
2018-08-25T20:16:58.033Z,11.30
2018-08-25T20:19:26.872Z,11.90
2018-08-25T20:21:55.672Z,10.73
2018-08-25T20:24:24.484Z,11.17
2018-08-25T20:26:53.339Z,10.90
2018-08-25T20:29:22.166Z,10.90
2018-08-25T20:31:51.076Z,11.17
2018-08-25T20:34:19.842Z,10.90
2018-08-25T20:36:48.776Z,11.10
2018-08-25T20:39:17.634Z,9.80
2018-08-25T20:41:46.466Z,10.00
2018-08-25T20:44:15.312Z,10.20
2018-08-25T20:46:44.110Z,10.53
2018-08-25T20:49:12.913Z,11.63
2018-08-25T20:51:41.744Z,10.10
2018-08-25T20:54:10.532Z,12.77
2018-08-25T20:56:39.350Z,12.20
2018-08-25T20:59:08.182Z,10.93
2018-08-25T21:01:37.023Z,12.10
2018-08-25T21:04:05.841Z,11.93
2018-08-25T21:06:34.697Z,10.87
2018-08-25T21:09:04.969Z,10.67
2018-08-25T21:11:34.035Z,11.70
2018-08-25T21:14:02.875Z,11.40
2018-08-25T21:16:31.748Z,12.10
2018-08-25T21:19:00.535Z,11.00
2018-08-25T21:21:29.441Z,12.10
2018-08-25T21:23:58.318Z,10.80
2018-08-25T21:26:27.151Z,10.80
2018-08-25T21:28:55.934Z,11.20
2018-08-25T21:31:24.816Z,11.37
2018-08-25T21:33:53.685Z,10.23
2018-08-25T21:36:22.551Z,11.87
2018-08-25T21:38:51.378Z,10.83
2018-08-25T21:41:20.186Z,11.37
2018-08-25T21:43:49.070Z,11.97
2018-08-25T21:46:17.898Z,11.07
2018-08-25T21:48:46.694Z,11.57
2018-08-25T21:51:15.479Z,10.77
2018-08-25T21:53:44.254Z,10.40
2018-08-25T21:56:13.033Z,10.67
2018-08-25T21:58:41.880Z,10.10
2018-08-25T22:01:10.834Z,9.97
2018-08-25T22:03:39.769Z,10.10
2018-08-25T22:06:08.619Z,9.67
2018-08-25T22:08:37.441Z,10.13
2018-08-25T22:11:06.305Z,9.97
2018-08-25T22:13:35.152Z,10.40
2018-08-25T22:16:03.945Z,9.90
2018-08-25T22:18:32.735Z,9.83
2018-08-25T22:21:01.517Z,9.63
2018-08-25T22:23:30.520Z,10.50
2018-08-25T22:25:59.319Z,9.97
2018-08-25T22:28:28.056Z,9.07
2018-08-25T22:30:57.021Z,10.20
2018-08-25T22:33:25.803Z,11.60
2018-08-25T22:35:54.577Z,9.33
2018-08-25T22:38:23.379Z,9.80
2018-08-25T22:40:52.215Z,10.10
2018-08-25T22:43:21.018Z,10.50
2018-08-25T22:45:49.830Z,10.57
2018-08-25T22:48:18.692Z,11.27
2018-08-25T22:50:47.486Z,12.13
2018-08-25T22:53:16.316Z,12.10
2018-08-25T22:55:45.451Z,11.37
2018-08-25T22:58:14.287Z,11.43
2018-08-25T23:00:43.127Z,10.93
2018-08-25T23:03:11.958Z,11.47
2018-08-25T23:05:40.786Z,10.50
2018-08-25T23:08:09.580Z,12.30
2018-08-25T23:10:38.539Z,12.00
2018-08-25T23:13:07.494Z,12.07
2018-08-25T23:15:36.268Z,11.57
2018-08-25T23:18:05.169Z,10.27
2018-08-25T23:20:33.964Z,11.10
2018-08-25T23:23:03.040Z,11.37
2018-08-25T23:25:31.822Z,12.07
2018-08-25T23:28:00.622Z,11.90
2018-08-25T23:38:03.354Z,10.55
2018-08-25T23:40:32.146Z,11.57
2018-08-25T23:45:09.134Z,11.68
2018-08-25T23:47:37.893Z,11.60
2018-08-25T23:50:07.101Z,11.80
2018-08-25T23:52:37.249Z,11.03
2018-08-25T23:55:07.753Z,9.73
2018-08-25T23:57:36.559Z,10.83
